Terminal Aerodrome Forecast
Issued by NWS Sterling, VA

Current Version | Previous Version | Graphics & Text | Print | Product List | Glossary On
Versions: 1 2 3 4 5 6 7 8 9 10 11 12 13 14 15 16 17 18
100
FTUS41 KLWX 211824 AAA
TAFMRB
TAF AMD
KMRB 211824Z 2118/2218 26010G17KT P6SM VCSH SCT045 BKN070
     FM211900 27010G17KT P6SM SCT050
     FM220000 31006KT P6SM FEW060 SCT150
     FM221200 34006KT P6SM SCT040 OVC060
     FM221500 34007KT P6SM BKN030 OVC040=

USA.gov is the U.S. government's official web portal to all federal, state and local government web resources and services.